createdAt,value
2023-02-04T00:02:43.213Z,25.92
2023-02-04T00:07:46.011Z,31.20
2023-02-04T00:12:48.758Z,36.50
2023-02-04T00:17:52.792Z,29.75
2023-02-04T00:22:56.428Z,38.75
2023-02-04T00:27:59.230Z,25.33
2023-02-04T00:33:03.444Z,45.03
2023-02-04T00:38:06.492Z,30.02
2023-02-04T00:43:09.257Z,49.50
2023-02-04T00:48:15.341Z,41.72
2023-02-04T00:53:18.093Z,31.52
2023-02-04T00:58:20.926Z,35.58
2023-02-04T01:03:25.156Z,23.60
2023-02-04T01:08:28.023Z,23.10
2023-02-04T01:13:31.149Z,38.10
2023-02-04T01:18:35.415Z,40.17
2023-02-04T01:23:38.772Z,36.08
2023-02-04T01:28:43.782Z,43.78
2023-02-04T01:33:47.864Z,38.92
2023-02-04T01:38:50.953Z,50.92
2023-02-04T01:43:53.960Z,29.23
2023-02-04T01:48:58.081Z,37.75
2023-02-04T01:54:01.831Z,41.45
2023-02-04T01:59:13.395Z,42.00
2023-02-04T02:04:19.778Z,33.17
2023-02-04T02:09:22.710Z,40.27
2023-02-04T02:14:25.667Z,33.33
2023-02-04T02:19:36.122Z,33.88
2023-02-04T02:24:40.229Z,34.80
2023-02-04T02:29:43.749Z,39.15
2023-02-04T02:34:47.787Z,35.00
2023-02-04T02:39:52.271Z,34.88
2023-02-04T02:44:55.407Z,36.10
2023-02-04T02:49:59.314Z,55.65
2023-02-04T02:55:03.469Z,46.70
2023-02-04T03:00:15.347Z,46.92
2023-02-04T03:05:18.886Z,31.73
2023-02-04T03:10:23.432Z,36.03
2023-02-04T03:15:27.331Z,33.95
2023-02-04T03:20:32.880Z,43.53
2023-02-04T03:25:37.311Z,44.05
2023-02-04T03:30:40.247Z,42.20
2023-02-04T03:35:43.058Z,44.90
2023-02-04T03:40:47.183Z,54.13
2023-02-04T03:45:50.267Z,53.83
2023-02-04T03:50:53.048Z,45.72
2023-02-04T03:55:57.230Z,48.08
2023-02-04T04:00:59.945Z,48.58
2023-02-04T04:06:05.281Z,54.17
2023-02-04T04:11:09.731Z,38.67
2023-02-04T04:16:12.937Z,61.10
2023-02-04T04:21:15.743Z,47.30
2023-02-04T04:26:20.261Z,35.72
2023-02-04T04:31:23.288Z,32.83
2023-02-04T04:36:26.218Z,57.22
2023-02-04T04:41:30.381Z,44.95
2023-02-04T04:46:33.161Z,43.92
2023-02-04T04:51:35.905Z,49.50
2023-02-04T04:56:40.072Z,36.08
2023-02-04T05:01:42.910Z,46.90
2023-02-04T05:06:45.987Z,49.58
2023-02-04T05:11:50.145Z,52.13
2023-02-04T05:16:52.859Z,53.90
2023-02-04T05:21:55.688Z,45.45
2023-02-04T05:26:59.838Z,40.70
2023-02-04T05:32:02.692Z,47.47
2023-02-04T05:37:05.561Z,58.30
2023-02-04T05:42:09.752Z,56.53
2023-02-04T05:47:12.598Z,51.05
2023-02-04T05:52:15.367Z,52.08
2023-02-04T05:57:19.432Z,35.28
2023-02-04T06:02:22.148Z,60.92
2023-02-04T06:07:24.945Z,49.50
2023-02-04T06:12:28.990Z,62.20
2023-02-04T06:17:31.700Z,53.60
2023-02-04T06:22:34.601Z,40.63
2023-02-04T06:27:38.785Z,44.22
2023-02-04T06:32:41.732Z,72.78
2023-02-04T06:37:44.756Z,64.03
2023-02-04T06:42:48.804Z,52.67
2023-02-04T06:47:51.577Z,74.57
2023-02-04T06:52:54.343Z,65.70
2023-02-04T06:57:58.410Z,81.38
2023-02-04T07:03:01.196Z,48.90
2023-02-04T07:08:03.938Z,48.38
2023-02-04T07:13:08.029Z,46.47
2023-02-04T07:18:10.789Z,59.67
2023-02-04T07:23:13.781Z,46.53
2023-02-04T07:28:18.058Z,66.15
2023-02-04T07:33:20.814Z,57.47
2023-02-04T07:38:23.599Z,57.70
2023-02-04T07:43:27.800Z,40.95
2023-02-04T07:48:30.574Z,53.42
2023-02-04T07:53:33.319Z,48.10
2023-02-04T07:58:37.604Z,51.42
2023-02-04T08:03:41.815Z,41.90
2023-02-04T08:08:44.649Z,50.75
2023-02-04T08:13:48.752Z,48.22
2023-02-04T08:18:51.575Z,51.63
2023-02-04T08:23:54.378Z,53.85
2023-02-04T08:28:58.464Z,45.50
2023-02-04T08:34:01.651Z,58.55
2023-02-04T08:39:04.438Z,56.50
2023-02-04T08:44:08.709Z,52.55
2023-02-04T08:49:11.481Z,65.80
2023-02-04T08:54:14.278Z,54.92
2023-02-04T08:59:18.438Z,62.83
2023-02-04T09:04:21.777Z,43.10
2023-02-04T09:09:26.291Z,46.22
2023-02-04T09:14:30.507Z,40.47
2023-02-04T09:19:33.395Z,59.85
2023-02-04T09:24:36.167Z,52.55
2023-02-04T09:29:40.393Z,37.13
2023-02-04T09:34:43.095Z,54.88
2023-02-04T09:39:45.889Z,57.38
2023-02-04T09:44:50.111Z,44.13
2023-02-04T09:49:53.249Z,49.95
2023-02-04T09:54:56.000Z,47.55
2023-02-04T10:00:01.517Z,43.35
2023-02-04T10:05:04.428Z,58.25
2023-02-04T10:10:14.479Z,38.70
2023-02-04T10:15:20.368Z,35.90
2023-02-04T10:20:25.042Z,50.65
2023-02-04T10:25:27.992Z,29.15
2023-02-04T10:30:38.984Z,41.22
2023-02-04T10:35:47.183Z,35.28
2023-02-04T10:41:00.879Z,47.28
2023-02-04T10:46:05.698Z,38.75
2023-02-04T10:51:13.854Z,36.33
2023-02-04T10:56:19.595Z,42.40
2023-02-04T11:01:23.836Z,41.13
2023-02-04T11:06:26.569Z,34.92
2023-02-04T11:11:29.373Z,28.17
2023-02-04T11:16:35.584Z,25.23
2023-02-04T11:21:46.005Z,23.27
2023-02-04T11:26:51.618Z,30.48
2023-02-04T11:32:01.928Z,40.25
2023-02-04T11:37:14.268Z,35.38
2023-02-04T11:42:23.197Z,39.92
2023-02-04T11:47:29.286Z,27.25
2023-02-04T11:52:35.862Z,31.23
2023-02-04T11:57:42.618Z,27.65
2023-02-04T12:02:48.593Z,26.45
2023-02-04T12:07:51.383Z,21.55
2023-02-04T12:12:58.290Z,23.02
2023-02-04T12:18:08.316Z,36.22
2023-02-04T12:23:11.202Z,20.73
2023-02-04T12:28:14.045Z,16.02
2023-02-04T12:33:18.386Z,22.73
2023-02-04T12:38:21.875Z,30.00
2023-02-04T12:43:28.088Z,22.67
2023-02-04T12:48:32.743Z,22.85
2023-02-04T12:53:35.504Z,23.85
2023-02-04T12:58:38.336Z,23.90
2023-02-04T13:03:42.580Z,24.92
2023-02-04T13:08:45.296Z,22.00
2023-02-04T13:13:48.077Z,23.15
2023-02-04T13:18:52.148Z,21.58
2023-02-04T13:23:54.946Z,21.92
2023-02-04T13:28:57.682Z,25.50
2023-02-04T13:34:01.858Z,24.63
2023-02-04T13:39:04.761Z,27.58
2023-02-04T13:44:08.015Z,22.05
2023-02-04T13:49:12.190Z,19.73
2023-02-04T13:54:14.936Z,18.77
2023-02-04T13:59:18.841Z,25.95
2023-02-04T14:04:24.311Z,17.48
2023-02-04T14:09:27.119Z,15.73
2023-02-04T14:14:29.803Z,29.77
2023-02-04T14:19:33.990Z,20.48
2023-02-04T14:24:36.837Z,21.63
2023-02-04T14:29:39.635Z,28.67
2023-02-04T14:34:43.749Z,21.33
2023-02-04T14:39:46.528Z,20.40
2023-02-04T14:44:49.493Z,19.83
2023-02-04T14:49:53.535Z,19.73
2023-02-04T14:54:56.344Z,27.23
2023-02-04T14:59:59.150Z,31.05
2023-02-04T15:05:03.475Z,29.58
2023-02-04T15:10:08.501Z,30.98
2023-02-04T15:15:13.013Z,16.17
2023-02-04T15:20:18.520Z,23.38
2023-02-04T15:25:21.342Z,38.65
2023-02-04T15:30:24.312Z,27.08
2023-02-04T15:35:28.785Z,19.95
2023-02-04T15:40:31.960Z,29.23
2023-02-04T15:45:34.942Z,29.63
2023-02-04T15:50:40.019Z,32.33
2023-02-04T15:55:42.878Z,35.60
2023-02-04T16:00:45.580Z,31.67
2023-02-04T16:05:49.737Z,27.42
2023-02-04T16:10:54.152Z,30.70
2023-02-04T16:15:57.018Z,36.63
2023-02-04T16:21:01.323Z,28.17
2023-02-04T16:26:04.212Z,30.33
2023-02-04T16:31:09.594Z,26.23
2023-02-04T16:36:13.988Z,30.85
2023-02-04T16:41:16.801Z,31.90
2023-02-04T16:46:19.751Z,23.98
2023-02-04T16:51:24.857Z,22.70
2023-02-04T16:56:35.013Z,29.02
2023-02-04T17:01:37.920Z,35.40
2023-02-04T17:06:42.606Z,28.40
2023-02-04T17:11:45.735Z,39.40
2023-02-04T17:16:51.441Z,34.97
2023-02-04T17:21:55.495Z,30.05
2023-02-04T17:26:59.269Z,42.05
2023-02-04T17:32:01.973Z,36.70
2023-02-04T17:37:06.144Z,33.70
2023-02-04T17:42:08.840Z,69.30
2023-02-04T17:47:11.663Z,36.15
2023-02-04T17:52:16.121Z,43.53
2023-02-04T17:57:20.549Z,45.67
2023-02-04T18:02:26.423Z,53.33
2023-02-04T18:07:30.749Z,78.60
2023-02-04T18:12:35.665Z,62.63
2023-02-04T18:17:38.451Z,50.72
2023-02-04T18:22:42.518Z,43.00
2023-02-04T18:27:45.656Z,43.58
2023-02-04T18:32:49.132Z,58.22
2023-02-04T18:37:54.182Z,49.38
2023-02-04T18:43:06.645Z,47.88
2023-02-04T18:48:55.330Z,43.10
2023-02-04T18:54:24.610Z,38.67
2023-02-04T18:59:28.832Z,40.78
2023-02-04T19:04:34.623Z,57.70
2023-02-04T19:09:38.790Z,52.95
2023-02-04T19:14:44.903Z,57.60
2023-02-04T19:19:55.301Z,44.55
2023-02-04T19:25:03.037Z,30.48
2023-02-04T19:30:46.205Z,41.72
2023-02-04T19:35:49.532Z,30.05
2023-02-04T19:40:53.984Z,28.08
2023-02-04T19:45:56.843Z,28.92
2023-02-04T19:51:01.670Z,27.95
2023-02-04T19:56:28.921Z,54.22
2023-02-04T20:01:33.630Z,62.47
2023-02-04T20:06:36.965Z,33.38
2023-02-04T20:11:59.159Z,40.40
2023-02-04T20:17:03.586Z,41.90
2023-02-04T20:22:37.096Z,42.90
2023-02-04T20:27:42.502Z,29.30
2023-02-04T20:32:47.455Z,30.23
2023-02-04T20:37:55.050Z,32.22
2023-02-04T20:43:02.585Z,43.53
2023-02-04T20:48:28.615Z,58.35
2023-02-04T20:53:38.599Z,59.17
2023-02-04T20:58:44.606Z,61.53
2023-02-04T21:03:50.102Z,104.38
2023-02-04T21:08:55.233Z,105.68
2023-02-04T21:13:59.712Z,97.85
2023-02-04T21:19:02.501Z,66.85
2023-02-04T21:24:07.469Z,62.08
2023-02-04T21:29:11.708Z,63.85
2023-02-04T21:34:15.760Z,59.78
2023-02-04T21:39:18.681Z,69.07
2023-02-04T21:44:22.897Z,53.95
2023-02-04T21:49:25.709Z,53.10
2023-02-04T21:54:28.817Z,52.92
2023-02-04T21:59:33.008Z,47.17
2023-02-04T22:04:35.733Z,43.70
2023-02-04T22:09:38.512Z,42.22
2023-02-04T22:14:42.633Z,43.78
2023-02-04T22:19:45.759Z,45.10
2023-02-04T22:24:48.580Z,57.03
2023-02-04T22:29:53.329Z,54.03
2023-02-04T22:34:56.192Z,39.90
2023-02-04T22:39:59.009Z,56.47
2023-02-04T22:45:03.907Z,52.13
2023-02-04T22:50:07.332Z,53.63
2023-02-04T22:55:10.132Z,58.35
2023-02-04T23:00:15.728Z,59.05
2023-02-04T23:05:18.741Z,51.00
2023-02-04T23:10:21.768Z,54.10
2023-02-04T23:15:26.145Z,43.05
2023-02-04T23:20:28.937Z,37.50
2023-02-04T23:25:31.904Z,41.55
2023-02-04T23:30:36.167Z,54.53
2023-02-04T23:35:38.918Z,63.35
2023-02-04T23:40:41.796Z,58.83
2023-02-04T23:45:46.521Z,52.47
2023-02-04T23:50:49.311Z,56.45
2023-02-04T23:55:52.484Z,60.05
